sensor_id;sensor_type;location;lat;lon;timestamp;P1;durP1;ratioP1;P2;durP2;ratioP2
9807;SDS011;4943;52.550;13.462;2023-05-02T00:00:40;336.40;;;207.03;;
9807;SDS011;4943;52.550;13.462;2023-05-02T00:03:10;335.27;;;209.47;;
9807;SDS011;4943;52.550;13.462;2023-05-02T00:05:39;333.27;;;204.97;;
9807;SDS011;4943;52.550;13.462;2023-05-02T00:08:07;332.13;;;202.13;;
9807;SDS011;4943;52.550;13.462;2023-05-02T00:10:35;332.33;;;202.67;;
9807;SDS011;4943;52.550;13.462;2023-05-02T00:13:03;333.67;;;204.27;;
9807;SDS011;4943;52.550;13.462;2023-05-02T00:15:32;337.00;;;204.27;;
9807;SDS011;4943;52.550;13.462;2023-05-02T00:18:01;338.53;;;203.17;;
9807;SDS011;4943;52.550;13.462;2023-05-02T00:20:29;336.53;;;205.70;;
9807;SDS011;4943;52.550;13.462;2023-05-02T00:22:57;335.37;;;209.57;;
9807;SDS011;4943;52.550;13.462;2023-05-02T00:25:25;337.83;;;202.97;;
9807;SDS011;4943;52.550;13.462;2023-05-02T00:27:54;334.30;;;199.10;;
9807;SDS011;4943;52.550;13.462;2023-05-02T00:30:22;335.73;;;201.67;;
9807;SDS011;4943;52.550;13.462;2023-05-02T00:32:50;338.80;;;197.43;;
9807;SDS011;4943;52.550;13.462;2023-05-02T00:35:20;330.53;;;193.40;;
9807;SDS011;4943;52.550;13.462;2023-05-02T00:37:48;333.63;;;196.30;;
9807;SDS011;4943;52.550;13.462;2023-05-02T00:40:17;331.67;;;190.80;;
9807;SDS011;4943;52.550;13.462;2023-05-02T00:42:45;332.77;;;190.87;;
9807;SDS011;4943;52.550;13.462;2023-05-02T00:45:13;331.27;;;191.57;;
9807;SDS011;4943;52.550;13.462;2023-05-02T00:47:41;329.90;;;188.93;;
9807;SDS011;4943;52.550;13.462;2023-05-02T00:50:10;330.97;;;190.13;;
9807;SDS011;4943;52.550;13.462;2023-05-02T00:52:39;329.20;;;183.00;;
9807;SDS011;4943;52.550;13.462;2023-05-02T00:55:08;327.50;;;188.47;;
9807;SDS011;4943;52.550;13.462;2023-05-02T00:57:36;329.47;;;182.50;;
9807;SDS011;4943;52.550;13.462;2023-05-02T01:00:05;329.37;;;189.87;;
9807;SDS011;4943;52.550;13.462;2023-05-02T01:02:37;328.10;;;188.87;;
9807;SDS011;4943;52.550;13.462;2023-05-02T01:05:16;329.20;;;187.23;;
9807;SDS011;4943;52.550;13.462;2023-05-02T01:07:59;327.63;;;182.80;;
9807;SDS011;4943;52.550;13.462;2023-05-02T01:10:37;330.60;;;189.27;;
9807;SDS011;4943;52.550;13.462;2023-05-02T01:13:20;327.93;;;186.83;;
9807;SDS011;4943;52.550;13.462;2023-05-02T01:15:49;327.93;;;188.57;;
9807;SDS011;4943;52.550;13.462;2023-05-02T01:18:20;327.63;;;174.37;;
9807;SDS011;4943;52.550;13.462;2023-05-02T01:20:51;325.87;;;181.10;;
9807;SDS011;4943;52.550;13.462;2023-05-02T01:23:27;323.67;;;178.67;;
9807;SDS011;4943;52.550;13.462;2023-05-02T01:26:04;325.13;;;178.40;;
9807;SDS011;4943;52.550;13.462;2023-05-02T01:28:54;322.00;;;170.97;;
9807;SDS011;4943;52.550;13.462;2023-05-02T01:31:25;320.43;;;168.90;;
9807;SDS011;4943;52.550;13.462;2023-05-02T01:33:55;324.97;;;172.67;;
9807;SDS011;4943;52.550;13.462;2023-05-02T01:36:25;324.13;;;172.93;;
9807;SDS011;4943;52.550;13.462;2023-05-02T01:38:56;326.50;;;176.47;;
9807;SDS011;4943;52.550;13.462;2023-05-02T01:41:26;323.03;;;175.10;;
9807;SDS011;4943;52.550;13.462;2023-05-02T01:44:02;321.40;;;174.50;;
9807;SDS011;4943;52.550;13.462;2023-05-02T01:46:33;323.00;;;173.67;;
9807;SDS011;4943;52.550;13.462;2023-05-02T01:49:06;321.80;;;170.87;;
9807;SDS011;4943;52.550;13.462;2023-05-02T01:51:35;318.17;;;169.17;;
9807;SDS011;4943;52.550;13.462;2023-05-02T01:54:09;320.67;;;168.70;;
9807;SDS011;4943;52.550;13.462;2023-05-02T01:56:40;319.87;;;167.63;;
9807;SDS011;4943;52.550;13.462;2023-05-02T01:59:36;321.87;;;168.60;;
9807;SDS011;4943;52.550;13.462;2023-05-02T02:02:06;324.57;;;173.00;;
9807;SDS011;4943;52.550;13.462;2023-05-02T02:04:36;324.10;;;173.53;;
9807;SDS011;4943;52.550;13.462;2023-05-02T02:07:07;317.93;;;162.73;;
9807;SDS011;4943;52.550;13.462;2023-05-02T02:09:37;316.77;;;159.07;;
9807;SDS011;4943;52.550;13.462;2023-05-02T02:12:07;318.83;;;164.60;;
9807;SDS011;4943;52.550;13.462;2023-05-02T02:14:40;320.03;;;170.43;;
9807;SDS011;4943;52.550;13.462;2023-05-02T02:17:25;321.97;;;171.40;;
9807;SDS011;4943;52.550;13.462;2023-05-02T02:19:59;325.77;;;172.07;;
9807;SDS011;4943;52.550;13.462;2023-05-02T02:22:29;316.50;;;161.83;;
9807;SDS011;4943;52.550;13.462;2023-05-02T02:25:04;317.77;;;161.70;;
9807;SDS011;4943;52.550;13.462;2023-05-02T02:27:35;314.67;;;157.63;;
9807;SDS011;4943;52.550;13.462;2023-05-02T02:30:05;319.47;;;168.40;;
9807;SDS011;4943;52.550;13.462;2023-05-02T02:32:34;314.47;;;157.60;;
9807;SDS011;4943;52.550;13.462;2023-05-02T02:35:03;317.53;;;157.23;;
9807;SDS011;4943;52.550;13.462;2023-05-02T02:37:33;316.80;;;158.80;;
9807;SDS011;4943;52.550;13.462;2023-05-02T02:40:07;314.67;;;153.90;;
9807;SDS011;4943;52.550;13.462;2023-05-02T02:42:49;314.63;;;154.33;;
9807;SDS011;4943;52.550;13.462;2023-05-02T02:45:25;319.53;;;149.87;;
9807;SDS011;4943;52.550;13.462;2023-05-02T02:48:01;314.73;;;155.67;;
9807;SDS011;4943;52.550;13.462;2023-05-02T02:50:41;312.73;;;149.43;;
9807;SDS011;4943;52.550;13.462;2023-05-02T02:53:15;312.93;;;151.13;;
9807;SDS011;4943;52.550;13.462;2023-05-02T02:55:47;315.00;;;152.57;;
9807;SDS011;4943;52.550;13.462;2023-05-02T02:58:25;311.30;;;145.20;;
9807;SDS011;4943;52.550;13.462;2023-05-02T03:01:05;318.67;;;151.17;;
9807;SDS011;4943;52.550;13.462;2023-05-02T03:03:37;312.67;;;145.63;;
9807;SDS011;4943;52.550;13.462;2023-05-02T03:06:06;315.03;;;152.30;;
9807;SDS011;4943;52.550;13.462;2023-05-02T03:08:38;311.37;;;148.37;;
9807;SDS011;4943;52.550;13.462;2023-05-02T03:11:06;314.57;;;148.33;;
9807;SDS011;4943;52.550;13.462;2023-05-02T03:13:35;312.73;;;145.93;;
9807;SDS011;4943;52.550;13.462;2023-05-02T03:19:01;312.47;;;146.47;;
9807;SDS011;4943;52.550;13.462;2023-05-02T03:21:31;312.90;;;148.30;;
9807;SDS011;4943;52.550;13.462;2023-05-02T03:23:59;311.77;;;148.50;;
9807;SDS011;4943;52.550;13.462;2023-05-02T03:26:29;312.00;;;146.70;;
9807;SDS011;4943;52.550;13.462;2023-05-02T03:28:57;314.30;;;150.73;;
9807;SDS011;4943;52.550;13.462;2023-05-02T03:31:25;308.47;;;141.57;;
9807;SDS011;4943;52.550;13.462;2023-05-02T03:33:54;309.60;;;144.00;;
9807;SDS011;4943;52.550;13.462;2023-05-02T03:36:23;310.57;;;144.73;;
9807;SDS011;4943;52.550;13.462;2023-05-02T03:38:51;309.73;;;144.97;;
9807;SDS011;4943;52.550;13.462;2023-05-02T03:41:19;309.43;;;141.27;;
9807;SDS011;4943;52.550;13.462;2023-05-02T03:43:47;310.47;;;136.87;;
9807;SDS011;4943;52.550;13.462;2023-05-02T03:46:15;309.07;;;143.47;;
9807;SDS011;4943;52.550;13.462;2023-05-02T03:48:43;311.63;;;148.47;;
9807;SDS011;4943;52.550;13.462;2023-05-02T03:51:13;312.57;;;144.67;;
9807;SDS011;4943;52.550;13.462;2023-05-02T03:53:41;310.43;;;140.97;;
9807;SDS011;4943;52.550;13.462;2023-05-02T03:56:09;314.23;;;139.70;;
9807;SDS011;4943;52.550;13.462;2023-05-02T03:58:37;310.30;;;140.77;;
9807;SDS011;4943;52.550;13.462;2023-05-02T04:01:12;313.87;;;144.50;;
9807;SDS011;4943;52.550;13.462;2023-05-02T04:03:40;309.73;;;141.23;;
9807;SDS011;4943;52.550;13.462;2023-05-02T04:06:09;312.73;;;142.93;;
9807;SDS011;4943;52.550;13.462;2023-05-02T04:08:39;313.57;;;141.60;;
9807;SDS011;4943;52.550;13.462;2023-05-02T04:11:08;312.60;;;139.23;;
9807;SDS011;4943;52.550;13.462;2023-05-02T04:13:36;309.83;;;140.50;;
9807;SDS011;4943;52.550;13.462;2023-05-02T04:16:04;311.27;;;144.50;;
9807;SDS011;4943;52.550;13.462;2023-05-02T04:18:33;309.60;;;142.67;;
9807;SDS011;4943;52.550;13.462;2023-05-02T04:21:01;310.57;;;147.07;;
9807;SDS011;4943;52.550;13.462;2023-05-02T04:23:29;311.07;;;144.57;;
9807;SDS011;4943;52.550;13.462;2023-05-02T04:25:58;306.77;;;143.77;;
9807;SDS011;4943;52.550;13.462;2023-05-02T04:28:26;306.60;;;141.27;;
9807;SDS011;4943;52.550;13.462;2023-05-02T04:30:55;310.77;;;148.27;;
9807;SDS011;4943;52.550;13.462;2023-05-02T04:33:23;311.63;;;150.67;;
9807;SDS011;4943;52.550;13.462;2023-05-02T04:35:51;308.80;;;143.70;;
9807;SDS011;4943;52.550;13.462;2023-05-02T04:38:19;312.77;;;148.47;;
9807;SDS011;4943;52.550;13.462;2023-05-02T04:40:48;311.23;;;145.63;;
9807;SDS011;4943;52.550;13.462;2023-05-02T04:43:19;308.63;;;141.43;;
9807;SDS011;4943;52.550;13.462;2023-05-02T04:45:49;310.93;;;147.97;;
9807;SDS011;4943;52.550;13.462;2023-05-02T04:48:18;312.23;;;148.90;;
9807;SDS011;4943;52.550;13.462;2023-05-02T04:50:46;309.57;;;146.90;;
9807;SDS011;4943;52.550;13.462;2023-05-02T04:53:15;314.97;;;149.57;;
9807;SDS011;4943;52.550;13.462;2023-05-02T04:55:45;314.83;;;152.03;;
9807;SDS011;4943;52.550;13.462;2023-05-02T04:58:13;315.40;;;151.30;;
9807;SDS011;4943;52.550;13.462;2023-05-02T05:00:43;318.80;;;158.30;;
9807;SDS011;4943;52.550;13.462;2023-05-02T05:03:11;315.50;;;157.60;;
9807;SDS011;4943;52.550;13.462;2023-05-02T05:05:39;314.90;;;156.57;;
9807;SDS011;4943;52.550;13.462;2023-05-02T05:08:08;316.17;;;160.97;;
9807;SDS011;4943;52.550;13.462;2023-05-02T05:10:36;314.47;;;163.33;;
9807;SDS011;4943;52.550;13.462;2023-05-02T05:13:05;312.67;;;160.73;;
9807;SDS011;4943;52.550;13.462;2023-05-02T05:15:33;312.60;;;164.70;;
9807;SDS011;4943;52.550;13.462;2023-05-02T05:18:03;310.70;;;159.97;;
9807;SDS011;4943;52.550;13.462;2023-05-02T05:20:32;315.40;;;167.07;;
9807;SDS011;4943;52.550;13.462;2023-05-02T05:23:00;310.33;;;168.00;;
9807;SDS011;4943;52.550;13.462;2023-05-02T05:25:28;310.60;;;165.00;;
9807;SDS011;4943;52.550;13.462;2023-05-02T05:27:56;306.27;;;160.87;;
9807;SDS011;4943;52.550;13.462;2023-05-02T05:30:25;303.03;;;161.93;;
9807;SDS011;4943;52.550;13.462;2023-05-02T05:32:55;308.50;;;162.57;;
9807;SDS011;4943;52.550;13.462;2023-05-02T05:35:25;313.97;;;163.63;;
9807;SDS011;4943;52.550;13.462;2023-05-02T05:37:53;306.30;;;162.57;;
9807;SDS011;4943;52.550;13.462;2023-05-02T05:40:22;304.03;;;161.17;;
9807;SDS011;4943;52.550;13.462;2023-05-02T05:42:50;304.83;;;155.37;;
9807;SDS011;4943;52.550;13.462;2023-05-02T05:45:18;301.70;;;162.17;;
9807;SDS011;4943;52.550;13.462;2023-05-02T05:47:46;304.63;;;159.43;;
9807;SDS011;4943;52.550;13.462;2023-05-02T05:50:15;304.67;;;160.93;;
9807;SDS011;4943;52.550;13.462;2023-05-02T05:52:44;303.23;;;161.00;;
9807;SDS011;4943;52.550;13.462;2023-05-02T05:55:12;300.13;;;162.77;;
9807;SDS011;4943;52.550;13.462;2023-05-02T05:57:41;304.07;;;171.53;;
9807;SDS011;4943;52.550;13.462;2023-05-02T06:00:10;301.80;;;169.83;;
9807;SDS011;4943;52.550;13.462;2023-05-02T06:02:38;306.13;;;167.47;;
9807;SDS011;4943;52.550;13.462;2023-05-02T06:05:07;304.40;;;169.47;;
9807;SDS011;4943;52.550;13.462;2023-05-02T06:07:36;302.43;;;167.90;;
9807;SDS011;4943;52.550;13.462;2023-05-02T06:10:06;305.87;;;175.40;;
9807;SDS011;4943;52.550;13.462;2023-05-02T06:12:35;303.33;;;171.57;;
9807;SDS011;4943;52.550;13.462;2023-05-02T06:15:03;307.23;;;173.13;;
9807;SDS011;4943;52.550;13.462;2023-05-02T06:17:32;304.90;;;174.37;;
9807;SDS011;4943;52.550;13.462;2023-05-02T06:20:00;304.40;;;171.93;;
9807;SDS011;4943;52.550;13.462;2023-05-02T06:22:30;310.20;;;171.27;;
9807;SDS011;4943;52.550;13.462;2023-05-02T06:24:58;311.77;;;175.10;;
9807;SDS011;4943;52.550;13.462;2023-05-02T06:27:27;301.57;;;172.27;;
9807;SDS011;4943;52.550;13.462;2023-05-02T06:29:58;308.07;;;174.37;;
9807;SDS011;4943;52.550;13.462;2023-05-02T06:32:28;304.13;;;170.00;;
9807;SDS011;4943;52.550;13.462;2023-05-02T06:34:57;310.17;;;173.67;;
9807;SDS011;4943;52.550;13.462;2023-05-02T06:37:25;311.13;;;172.27;;
9807;SDS011;4943;52.550;13.462;2023-05-02T06:39:53;323.03;;;177.13;;
9807;SDS011;4943;52.550;13.462;2023-05-02T06:42:21;316.77;;;171.53;;
9807;SDS011;4943;52.550;13.462;2023-05-02T06:44:51;307.80;;;167.03;;
9807;SDS011;4943;52.550;13.462;2023-05-02T06:47:19;313.97;;;171.00;;
9807;SDS011;4943;52.550;13.462;2023-05-02T06:49:49;313.93;;;177.03;;
9807;SDS011;4943;52.550;13.462;2023-05-02T06:52:18;319.47;;;173.03;;
9807;SDS011;4943;52.550;13.462;2023-05-02T06:54:46;314.47;;;170.67;;
9807;SDS011;4943;52.550;13.462;2023-05-02T06:57:14;316.97;;;177.87;;
9807;SDS011;4943;52.550;13.462;2023-05-02T06:59:42;326.40;;;178.47;;
9807;SDS011;4943;52.550;13.462;2023-05-02T07:02:12;319.13;;;179.83;;
9807;SDS011;4943;52.550;13.462;2023-05-02T07:04:40;321.73;;;181.03;;
9807;SDS011;4943;52.550;13.462;2023-05-02T07:07:08;317.17;;;171.67;;
9807;SDS011;4943;52.550;13.462;2023-05-02T07:09:36;311.83;;;166.27;;
9807;SDS011;4943;52.550;13.462;2023-05-02T07:12:04;312.47;;;171.23;;
9807;SDS011;4943;52.550;13.462;2023-05-02T07:14:33;306.57;;;169.00;;
9807;SDS011;4943;52.550;13.462;2023-05-02T07:17:01;304.47;;;171.10;;
9807;SDS011;4943;52.550;13.462;2023-05-02T07:19:31;309.40;;;174.00;;
9807;SDS011;4943;52.550;13.462;2023-05-02T07:21:59;317.17;;;177.70;;
9807;SDS011;4943;52.550;13.462;2023-05-02T07:24:27;245.33;;;180.27;;
9807;SDS011;4943;52.550;13.462;2023-05-02T07:26:56;253.77;;;180.07;;
9807;SDS011;4943;52.550;13.462;2023-05-02T07:29:24;262.10;;;191.70;;
9807;SDS011;4943;52.550;13.462;2023-05-02T07:31:52;264.10;;;202.50;;
9807;SDS011;4943;52.550;13.462;2023-05-02T07:34:20;249.73;;;201.40;;
9807;SDS011;4943;52.550;13.462;2023-05-02T07:36:49;233.80;;;207.88;;
9807;SDS011;4943;52.550;13.462;2023-05-02T07:39:18;253.73;;;226.83;;
9807;SDS011;4943;52.550;13.462;2023-05-02T07:41:46;226.13;;;204.25;;
9807;SDS011;4943;52.550;13.462;2023-05-02T07:44:14;184.10;;;167.32;;
9807;SDS011;4943;52.550;13.462;2023-05-02T07:46:42;243.63;;;219.68;;
9807;SDS011;4943;52.550;13.462;2023-05-02T07:49:10;205.13;;;186.45;;
9807;SDS011;4943;52.550;13.462;2023-05-02T07:51:39;192.32;;;175.27;;
9807;SDS011;4943;52.550;13.462;2023-05-02T07:54:15;209.10;;;190.60;;
9807;SDS011;4943;52.550;13.462;2023-05-02T07:56:43;228.68;;;208.93;;
9807;SDS011;4943;52.550;13.462;2023-05-02T07:59:12;242.57;;;221.10;;
9807;SDS011;4943;52.550;13.462;2023-05-02T08:01:41;246.13;;;224.50;;
9807;SDS011;4943;52.550;13.462;2023-05-02T08:04:09;228.07;;;208.77;;
9807;SDS011;4943;52.550;13.462;2023-05-02T08:06:38;225.65;;;206.75;;
9807;SDS011;4943;52.550;13.462;2023-05-02T08:09:07;212.02;;;193.75;;
9807;SDS011;4943;52.550;13.462;2023-05-02T08:11:37;230.50;;;210.90;;
9807;SDS011;4943;52.550;13.462;2023-05-02T08:14:05;232.48;;;212.57;;
9807;SDS011;4943;52.550;13.462;2023-05-02T08:16:33;249.93;;;228.20;;
9807;SDS011;4943;52.550;13.462;2023-05-02T08:19:02;255.02;;;232.98;;
9807;SDS011;4943;52.550;13.462;2023-05-02T08:21:30;255.18;;;234.23;;
9807;SDS011;4943;52.550;13.462;2023-05-02T08:23:59;241.32;;;222.27;;
9807;SDS011;4943;52.550;13.462;2023-05-02T08:26:28;284.23;;;259.50;;
9807;SDS011;4943;52.550;13.462;2023-05-02T08:28:57;288.65;;;265.95;;
9807;SDS011;4943;52.550;13.462;2023-05-02T08:31:26;297.85;;;273.90;;
9807;SDS011;4943;52.550;13.462;2023-05-02T08:33:54;314.88;;;288.52;;
9807;SDS011;4943;52.550;13.462;2023-05-02T08:36:23;310.13;;;282.83;;
9807;SDS011;4943;52.550;13.462;2023-05-02T08:38:53;316.83;;;289.10;;
9807;SDS011;4943;52.550;13.462;2023-05-02T08:41:21;289.70;;;263.95;;
9807;SDS011;4943;52.550;13.462;2023-05-02T08:43:50;297.08;;;268.95;;
9807;SDS011;4943;52.550;13.462;2023-05-02T08:46:20;307.85;;;271.88;;
9807;SDS011;4943;52.550;13.462;2023-05-02T08:48:50;302.70;;;269.45;;
9807;SDS011;4943;52.550;13.462;2023-05-02T08:51:18;284.58;;;256.42;;
9807;SDS011;4943;52.550;13.462;2023-05-02T08:53:48;305.00;;;259.58;;
9807;SDS011;4943;52.550;13.462;2023-05-02T08:56:18;301.65;;;269.00;;
9807;SDS011;4943;52.550;13.462;2023-05-02T08:58:47;292.98;;;252.75;;
9807;SDS011;4943;52.550;13.462;2023-05-02T09:01:17;294.70;;;255.40;;
9807;SDS011;4943;52.550;13.462;2023-05-02T09:03:48;303.05;;;255.00;;
9807;SDS011;4943;52.550;13.462;2023-05-02T09:06:18;292.48;;;259.80;;
9807;SDS011;4943;52.550;13.462;2023-05-02T09:08:48;279.23;;;251.27;;
9807;SDS011;4943;52.550;13.462;2023-05-02T09:11:17;282.13;;;254.20;;
9807;SDS011;4943;52.550;13.462;2023-05-02T09:13:47;280.67;;;254.65;;
9807;SDS011;4943;52.550;13.462;2023-05-02T09:16:17;287.15;;;261.20;;
9807;SDS011;4943;52.550;13.462;2023-05-02T09:18:49;251.90;;;231.43;;
9807;SDS011;4943;52.550;13.462;2023-05-02T09:21:21;299.48;;;272.38;;
9807;SDS011;4943;52.550;13.462;2023-05-02T09:23:51;297.05;;;271.67;;
9807;SDS011;4943;52.550;13.462;2023-05-02T09:26:20;324.25;;;291.73;;
9807;SDS011;4943;52.550;13.462;2023-05-02T09:28:50;282.23;;;258.27;;
9807;SDS011;4943;52.550;13.462;2023-05-02T09:31:19;330.02;;;298.15;;
9807;SDS011;4943;52.550;13.462;2023-05-02T09:33:53;272.05;;;249.38;;
9807;SDS011;4943;52.550;13.462;2023-05-02T09:36:21;287.25;;;262.05;;
9807;SDS011;4943;52.550;13.462;2023-05-02T09:38:50;295.45;;;268.70;;
9807;SDS011;4943;52.550;13.462;2023-05-02T09:41:18;298.95;;;272.13;;
9807;SDS011;4943;52.550;13.462;2023-05-02T09:43:53;310.30;;;281.63;;
9807;SDS011;4943;52.550;13.462;2023-05-02T09:46:22;321.77;;;290.63;;
9807;SDS011;4943;52.550;13.462;2023-05-02T09:48:52;298.38;;;274.10;;
9807;SDS011;4943;52.550;13.462;2023-05-02T09:51:22;317.10;;;288.45;;
9807;SDS011;4943;52.550;13.462;2023-05-02T09:53:51;256.77;;;237.52;;
9807;SDS011;4943;52.550;13.462;2023-05-02T09:56:20;265.60;;;246.20;;
9807;SDS011;4943;52.550;13.462;2023-05-02T09:58:50;300.50;;;278.20;;
9807;SDS011;4943;52.550;13.462;2023-05-02T10:01:18;339.40;;;312.42;;
9807;SDS011;4943;52.550;13.462;2023-05-02T10:03:47;351.17;;;320.73;;
9807;SDS011;4943;52.550;13.462;2023-05-02T10:06:17;370.58;;;336.98;;
9807;SDS011;4943;52.550;13.462;2023-05-02T10:08:46;376.17;;;342.48;;
9807;SDS011;4943;52.550;13.462;2023-05-02T10:11:15;379.13;;;346.67;;
9807;SDS011;4943;52.550;13.462;2023-05-02T10:13:43;391.63;;;355.42;;
9807;SDS011;4943;52.550;13.462;2023-05-02T10:16:12;395.95;;;360.48;;
9807;SDS011;4943;52.550;13.462;2023-05-02T10:18:51;391.63;;;356.55;;
9807;SDS011;4943;52.550;13.462;2023-05-02T10:21:29;382.70;;;346.70;;
9807;SDS011;4943;52.550;13.462;2023-05-02T10:23:59;367.88;;;331.48;;
9807;SDS011;4943;52.550;13.462;2023-05-02T10:26:28;374.48;;;338.70;;
9807;SDS011;4943;52.550;13.462;2023-05-02T10:28:57;375.48;;;340.40;;
9807;SDS011;4943;52.550;13.462;2023-05-02T10:31:25;374.60;;;341.45;;
9807;SDS011;4943;52.550;13.462;2023-05-02T10:34:00;382.23;;;344.58;;
9807;SDS011;4943;52.550;13.462;2023-05-02T10:36:32;378.65;;;345.48;;
9807;SDS011;4943;52.550;13.462;2023-05-02T10:39:00;376.88;;;342.50;;
9807;SDS011;4943;52.550;13.462;2023-05-02T10:41:29;358.92;;;327.08;;
9807;SDS011;4943;52.550;13.462;2023-05-02T10:43:59;340.38;;;310.80;;
9807;SDS011;4943;52.550;13.462;2023-05-02T10:46:33;343.73;;;313.50;;
9807;SDS011;4943;52.550;13.462;2023-05-02T10:49:04;340.95;;;309.88;;
9807;SDS011;4943;52.550;13.462;2023-05-02T10:51:35;312.73;;;284.65;;
9807;SDS011;4943;52.550;13.462;2023-05-02T10:54:23;324.05;;;293.85;;
9807;SDS011;4943;52.550;13.462;2023-05-02T10:57:04;320.13;;;288.95;;
9807;SDS011;4943;52.550;13.462;2023-05-02T10:59:37;312.10;;;280.33;;
9807;SDS011;4943;52.550;13.462;2023-05-02T11:02:45;316.60;;;284.08;;
9807;SDS011;4943;52.550;13.462;2023-05-02T11:05:15;310.15;;;276.63;;
9807;SDS011;4943;52.550;13.462;2023-05-02T11:07:45;305.70;;;270.48;;
9807;SDS011;4943;52.550;13.462;2023-05-02T11:10:25;294.48;;;265.40;;
9807;SDS011;4943;52.550;13.462;2023-05-02T11:12:54;287.23;;;256.92;;
9807;SDS011;4943;52.550;13.462;2023-05-02T11:18:25;241.60;;;218.88;;
9807;SDS011;4943;52.550;13.462;2023-05-02T11:20:53;237.35;;;216.30;;
9807;SDS011;4943;52.550;13.462;2023-05-02T11:27:05;225.05;;;205.30;;
9807;SDS011;4943;52.550;13.462;2023-05-02T11:30:09;264.80;;;239.98;;
9807;SDS011;4943;52.550;13.462;2023-05-02T11:35:40;297.35;;;267.00;;
9807;SDS011;4943;52.550;13.462;2023-05-02T11:38:10;311.30;;;281.80;;
9807;SDS011;4943;52.550;13.462;2023-05-02T11:40:39;319.60;;;290.55;;
9807;SDS011;4943;52.550;13.462;2023-05-02T11:43:12;305.30;;;278.45;;
9807;SDS011;4943;52.550;13.462;2023-05-02T11:45:42;311.98;;;283.88;;
9807;SDS011;4943;52.550;13.462;2023-05-02T11:48:10;311.90;;;286.10;;
9807;SDS011;4943;52.550;13.462;2023-05-02T11:50:42;294.52;;;270.48;;
9807;SDS011;4943;52.550;13.462;2023-05-02T11:53:15;296.70;;;272.85;;
9807;SDS011;4943;52.550;13.462;2023-05-02T11:55:48;329.25;;;301.58;;
9807;SDS011;4943;52.550;13.462;2023-05-02T11:58:19;325.67;;;298.40;;
9807;SDS011;4943;52.550;13.462;2023-05-02T12:00:49;313.17;;;287.17;;
9807;SDS011;4943;52.550;13.462;2023-05-02T12:03:21;322.55;;;294.83;;
9807;SDS011;4943;52.550;13.462;2023-05-02T12:05:51;305.88;;;281.65;;
9807;SDS011;4943;52.550;13.462;2023-05-02T12:08:20;340.75;;;311.73;;
9807;SDS011;4943;52.550;13.462;2023-05-02T12:10:50;321.38;;;293.50;;
9807;SDS011;4943;52.550;13.462;2023-05-02T12:13:22;322.38;;;293.70;;
9807;SDS011;4943;52.550;13.462;2023-05-02T12:15:52;321.85;;;292.60;;
9807;SDS011;4943;52.550;13.462;2023-05-02T12:18:22;339.45;;;307.77;;
9807;SDS011;4943;52.550;13.462;2023-05-02T12:20:52;312.27;;;282.08;;
9807;SDS011;4943;52.550;13.462;2023-05-02T12:23:23;311.65;;;282.35;;
9807;SDS011;4943;52.550;13.462;2023-05-02T12:25:52;296.33;;;269.50;;
9807;SDS011;4943;52.550;13.462;2023-05-02T12:28:22;284.52;;;261.65;;
9807;SDS011;4943;52.550;13.462;2023-05-02T12:30:50;272.40;;;251.32;;
9807;SDS011;4943;52.550;13.462;2023-05-02T12:33:18;309.80;;;282.75;;
9807;SDS011;4943;52.550;13.462;2023-05-02T12:35:46;269.38;;;249.32;;
9807;SDS011;4943;52.550;13.462;2023-05-02T12:38:15;268.65;;;248.48;;
9807;SDS011;4943;52.550;13.462;2023-05-02T12:40:46;263.45;;;243.90;;
9807;SDS011;4943;52.550;13.462;2023-05-02T12:43:15;292.25;;;269.60;;
9807;SDS011;4943;52.550;13.462;2023-05-02T12:45:45;291.13;;;266.67;;
9807;SDS011;4943;52.550;13.462;2023-05-02T12:48:18;299.63;;;274.77;;
9807;SDS011;4943;52.550;13.462;2023-05-02T12:50:48;269.60;;;249.13;;
9807;SDS011;4943;52.550;13.462;2023-05-02T12:53:16;250.82;;;232.05;;
9807;SDS011;4943;52.550;13.462;2023-05-02T12:56:04;293.88;;;267.70;;
9807;SDS011;4943;52.550;13.462;2023-05-02T12:58:39;302.35;;;272.80;;
9807;SDS011;4943;52.550;13.462;2023-05-02T13:01:10;304.77;;;275.05;;
9807;SDS011;4943;52.550;13.462;2023-05-02T13:03:39;285.42;;;261.67;;
9807;SDS011;4943;52.550;13.462;2023-05-02T13:06:08;283.60;;;261.05;;
9807;SDS011;4943;52.550;13.462;2023-05-02T13:08:36;280.88;;;258.77;;
9807;SDS011;4943;52.550;13.462;2023-05-02T13:11:05;276.92;;;253.77;;
9807;SDS011;4943;52.550;13.462;2023-05-02T13:13:33;294.83;;;268.38;;
9807;SDS011;4943;52.550;13.462;2023-05-02T13:16:01;267.60;;;246.43;;
9807;SDS011;4943;52.550;13.462;2023-05-02T13:18:31;273.58;;;251.45;;
9807;SDS011;4943;52.550;13.462;2023-05-02T13:21:00;292.73;;;268.27;;
9807;SDS011;4943;52.550;13.462;2023-05-02T13:23:28;305.98;;;280.60;;
9807;SDS011;4943;52.550;13.462;2023-05-02T13:25:56;298.98;;;273.83;;
9807;SDS011;4943;52.550;13.462;2023-05-02T13:28:24;310.25;;;284.02;;
9807;SDS011;4943;52.550;13.462;2023-05-02T13:30:53;299.52;;;273.30;;
9807;SDS011;4943;52.550;13.462;2023-05-02T13:33:21;286.52;;;263.20;;
9807;SDS011;4943;52.550;13.462;2023-05-02T13:35:51;263.15;;;243.30;;
9807;SDS011;4943;52.550;13.462;2023-05-02T13:38:19;261.35;;;241.55;;
9807;SDS011;4943;52.550;13.462;2023-05-02T13:40:47;242.95;;;225.40;;
9807;SDS011;4943;52.550;13.462;2023-05-02T13:43:15;248.38;;;229.77;;
9807;SDS011;4943;52.550;13.462;2023-05-02T13:45:44;277.15;;;256.30;;
9807;SDS011;4943;52.550;13.462;2023-05-02T13:48:14;290.38;;;268.80;;
9807;SDS011;4943;52.550;13.462;2023-05-02T13:50:42;273.58;;;253.68;;
9807;SDS011;4943;52.550;13.462;2023-05-02T13:53:11;319.90;;;293.75;;
9807;SDS011;4943;52.550;13.462;2023-05-02T13:55:39;315.75;;;290.27;;
9807;SDS011;4943;52.550;13.462;2023-05-02T13:58:08;322.17;;;294.98;;
9807;SDS011;4943;52.550;13.462;2023-05-02T14:00:36;319.75;;;292.80;;
9807;SDS011;4943;52.550;13.462;2023-05-02T14:03:04;328.15;;;299.67;;
9807;SDS011;4943;52.550;13.462;2023-05-02T14:05:32;324.42;;;296.40;;
9807;SDS011;4943;52.550;13.462;2023-05-02T14:08:01;324.38;;;294.38;;
9807;SDS011;4943;52.550;13.462;2023-05-02T14:10:31;292.83;;;269.63;;
9807;SDS011;4943;52.550;13.462;2023-05-02T14:13:03;293.13;;;268.92;;
9807;SDS011;4943;52.550;13.462;2023-05-02T14:15:31;277.25;;;254.82;;
9807;SDS011;4943;52.550;13.462;2023-05-02T14:17:59;276.67;;;254.15;;
9807;SDS011;4943;52.550;13.462;2023-05-02T14:20:27;279.35;;;256.60;;
9807;SDS011;4943;52.550;13.462;2023-05-02T14:22:55;293.98;;;267.73;;
9807;SDS011;4943;52.550;13.462;2023-05-02T14:25:23;287.45;;;261.75;;
9807;SDS011;4943;52.550;13.462;2023-05-02T14:27:53;295.98;;;269.40;;
9807;SDS011;4943;52.550;13.462;2023-05-02T14:30:21;302.38;;;274.17;;
9807;SDS011;4943;52.550;13.462;2023-05-02T14:32:49;295.47;;;267.17;;
9807;SDS011;4943;52.550;13.462;2023-05-02T14:35:17;286.45;;;258.50;;
9807;SDS011;4943;52.550;13.462;2023-05-02T14:37:45;284.75;;;256.95;;